Time,TemperatureF,DewpointF,PressureIn,WindDirection,WindDirectionDegrees,WindSpeedMPH,WindSpeedGustMPH,Humidity,HourlyPrecipIn,Conditions,Clouds,dailyrainin,SoftwareType,DateUTC
2013-03-14 00:00:00,32.4,24.4,29.81,ESE,104,1.0,19.0,72,0.00,,,0.00,Wunderground v.1.15,2013-03-14 04:00:00,
2013-03-14 00:10:00,32.4,24.4,29.81,ESE,102,4.0,4.0,72,0.00,,,0.00,Wunderground v.1.15,2013-03-14 04:10:00,
2013-03-14 00:20:00,32.2,24.2,29.81,ESE,121,2.0,2.0,72,0.00,,,0.00,Wunderground v.1.15,2013-03-14 04:20:00,
2013-03-14 00:30:00,31.9,23.2,29.81,ESE,112,2.0,19.0,70,0.00,,,0.00,Wunderground v.1.15,2013-03-14 04:30:00,
2013-03-14 00:40:00,31.5,22.1,29.81,SE,126,2.0,19.0,68,0.00,,,0.00,Wunderground v.1.15,2013-03-14 04:40:00,
2013-03-14 00:49:00,31.3,21.3,29.81,ESE,121,4.0,19.0,66,0.00,,,0.00,Wunderground v.1.15,2013-03-14 04:49:00,
2013-03-14 01:00:00,31.0,20.6,29.81,SE,126,3.0,19.0,65,0.00,,,0.00,Wunderground v.1.15,2013-03-14 05:00:00,
2013-03-14 01:10:00,30.6,20.9,29.81,East,93,2.0,19.0,67,0.00,,,0.00,Wunderground v.1.15,2013-03-14 05:10:00,
2013-03-14 01:20:00,30.3,19.9,29.81,South,189,2.0,19.0,65,0.00,,,0.00,Wunderground v.1.15,2013-03-14 05:20:00,
2013-03-14 01:30:00,30.1,19.7,29.81,South,172,2.0,19.0,65,0.00,,,0.00,Wunderground v.1.15,2013-03-14 05:30:00,
2013-03-14 01:40:00,30.1,19.4,29.81,SSE,156,2.0,19.0,64,0.00,,,0.00,Wunderground v.1.15,2013-03-14 05:40:00,
2013-03-14 01:50:00,30.1,19.7,29.81,ESE,109,3.0,19.0,65,0.00,,,0.00,Wunderground v.1.15,2013-03-14 05:50:00,
2013-03-14 02:00:00,30.0,19.7,29.81,SE,136,1.0,19.0,65,0.00,,,0.00,Wunderground v.1.15,2013-03-14 06:00:00,
2013-03-14 02:10:00,29.8,19.5,29.81,SE,142,3.0,19.0,65,0.00,,,0.00,Wunderground v.1.15,2013-03-14 06:10:00,
2013-03-14 02:20:00,29.7,18.6,29.81,SSE,153,3.0,3.0,63,0.00,,,0.00,Wunderground v.1.15,2013-03-14 06:20:00,
2013-03-14 02:30:00,29.4,18.3,29.81,ESE,104,2.0,19.0,63,0.00,,,0.00,Wunderground v.1.15,2013-03-14 06:30:00,
2013-03-14 02:40:00,29.4,18.7,29.81,ESE,117,3.0,19.0,64,0.00,,,0.00,Wunderground v.1.15,2013-03-14 06:40:00,
2013-03-14 02:50:00,29.4,19.1,29.81,ESE,121,4.0,19.0,65,0.00,,,0.00,Wunderground v.1.15,2013-03-14 06:50:00,
2013-03-14 03:00:00,29.1,18.1,29.81,East,79,4.0,4.0,63,0.00,,,0.00,Wunderground v.1.15,2013-03-14 07:00:00,
2013-03-14 03:10:00,28.7,18.1,29.81,ESE,107,3.0,19.0,64,0.00,,,0.00,Wunderground v.1.15,2013-03-14 07:10:00,
2013-03-14 03:20:00,28.5,17.5,29.81,South,170,4.0,4.0,63,0.00,,,0.00,Wunderground v.1.15,2013-03-14 07:20:00,
2013-03-14 03:30:00,28.4,17.4,29.81,SSE,149,3.0,3.0,63,0.00,,,0.00,Wunderground v.1.15,2013-03-14 07:30:00,
2013-03-14 03:40:00,28.2,17.6,29.81,SE,131,4.0,4.0,64,0.00,,,0.00,Wunderground v.1.15,2013-03-14 07:40:00,
2013-03-14 03:50:00,27.8,17.9,29.80,SE,139,4.0,19.0,66,0.00,,,0.00,Wunderground v.1.15,2013-03-14 07:50:00,
2013-03-14 04:00:00,27.6,18.8,29.80,SSE,162,4.0,19.0,69,0.00,,,0.00,Wunderground v.1.15,2013-03-14 08:00:00,
2013-03-14 04:10:00,27.2,19.4,29.80,ESE,108,3.0,3.0,72,0.00,,,0.00,Wunderground v.1.15,2013-03-14 08:10:00,
2013-03-14 04:20:00,27.0,19.2,29.80,ESE,104,2.0,19.0,72,0.00,,,0.00,Wunderground v.1.15,2013-03-14 08:20:00,
2013-03-14 04:30:00,27.0,18.8,29.80,East,91,3.0,19.0,71,0.00,,,0.00,Wunderground v.1.15,2013-03-14 08:30:00,
2013-03-14 04:40:00,26.7,17.9,29.80,SE,131,4.0,19.0,69,0.00,,,0.00,Wunderground v.1.15,2013-03-14 08:40:00,
2013-03-14 04:50:00,26.9,16.0,29.80,SSW,212,3.0,19.0,63,0.00,,,0.00,Wunderground v.1.15,2013-03-14 08:50:00,
2013-03-14 05:00:00,26.9,16.0,29.79,SE,140,2.0,19.0,63,0.00,,,0.00,Wunderground v.1.15,2013-03-14 09:00:00,
2013-03-14 05:10:00,26.7,16.5,29.79,ESE,112,2.0,2.0,65,0.00,,,0.00,Wunderground v.1.15,2013-03-14 09:10:00,
2013-03-14 05:20:00,26.6,16.1,29.79,SSE,156,2.0,19.0,64,0.00,,,0.00,Wunderground v.1.15,2013-03-14 09:20:00,
2013-03-14 05:30:00,26.6,16.8,29.80,SE,126,3.0,19.0,66,0.00,,,0.00,Wunderground v.1.15,2013-03-14 09:30:00,
2013-03-14 05:40:00,26.4,16.6,29.80,SSE,150,3.0,3.0,66,0.00,,,0.00,Wunderground v.1.15,2013-03-14 09:40:00,
2013-03-14 05:49:00,26.3,16.5,29.80,SE,126,3.0,19.0,66,0.00,,,0.00,Wunderground v.1.15,2013-03-14 09:49:00,
2013-03-14 06:00:00,26.0,16.5,29.80,SE,139,2.0,19.0,67,0.00,,,0.00,Wunderground v.1.15,2013-03-14 10:00:00,
2013-03-14 06:10:00,25.8,17.0,29.80,ESE,121,2.0,19.0,69,0.00,,,0.00,Wunderground v.1.15,2013-03-14 10:10:00,
2013-03-14 06:20:00,25.7,16.6,29.80,SSE,159,2.0,2.0,68,0.00,,,0.00,Wunderground v.1.15,2013-03-14 10:20:00,
2013-03-14 06:30:00,25.6,16.5,29.80,ESE,121,4.0,4.0,68,0.00,,,0.00,Wunderground v.1.15,2013-03-14 10:30:00,
2013-03-14 06:40:00,25.4,16.3,29.80,SSE,151,3.0,3.0,68,0.00,,,0.00,Wunderground v.1.15,2013-03-14 10:40:00,
2013-03-14 06:50:00,25.4,16.0,29.80,SE,131,3.0,3.0,67,0.00,,,0.00,Wunderground v.1.15,2013-03-14 10:50:00,
2013-03-14 07:00:00,25.4,14.9,29.80,SE,126,3.0,19.0,64,0.00,,,0.00,Wunderground v.1.15,2013-03-14 11:00:00,
2013-03-14 07:10:00,25.3,14.5,29.80,SE,137,4.0,4.0,63,0.00,,,0.00,Wunderground v.1.15,2013-03-14 11:10:00,
2013-03-14 07:20:00,25.1,14.6,29.81,SE,139,2.0,19.0,64,0.00,,,0.00,Wunderground v.1.15,2013-03-14 11:20:00,
2013-03-14 07:30:00,25.1,15.0,29.81,WSW,248,2.0,19.0,65,0.00,,,0.00,Wunderground v.1.15,2013-03-14 11:30:00,
2013-03-14 07:40:00,25.0,15.9,29.81,WSW,241,3.0,19.0,68,0.00,,,0.00,Wunderground v.1.15,2013-03-14 11:40:00,
2013-03-14 07:50:00,24.5,16.8,29.81,SE,135,3.0,19.0,72,0.00,,,0.00,Wunderground v.1.15,2013-03-14 11:50:00,
2013-03-14 08:00:00,24.4,17.0,29.81,East,99,2.0,19.0,73,0.00,,,0.00,Wunderground v.1.15,2013-03-14 12:00:00,
2013-03-14 08:10:00,24.5,15.4,29.81,SE,145,3.0,3.0,68,0.00,,,0.00,Wunderground v.1.15,2013-03-14 12:10:00,
2013-03-14 08:20:00,24.7,14.9,29.82,SSW,202,3.0,3.0,66,0.00,,,0.00,Wunderground v.1.15,2013-03-14 12:20:00,
2013-03-14 08:30:00,24.5,15.4,29.83,South,185,3.0,3.0,68,0.00,,,0.00,Wunderground v.1.15,2013-03-14 12:30:00,
2013-03-14 08:40:00,24.2,14.5,29.83,West,281,3.0,19.0,66,0.00,,,0.00,Wunderground v.1.15,2013-03-14 12:40:00,
2013-03-14 08:50:00,24.2,14.8,29.83,ESE,121,2.0,19.0,67,0.00,,,0.00,Wunderground v.1.15,2013-03-14 12:50:00,
2013-03-14 09:00:00,24.7,13.9,29.83,South,175,1.0,19.0,63,0.00,,,0.00,Wunderground v.1.15,2013-03-14 13:00:00,
2013-03-14 09:10:00,24.8,11.7,29.83,ESE,121,3.0,3.0,57,0.00,,,0.00,Wunderground v.1.15,2013-03-14 13:10:00,
2013-03-14 09:20:00,25.0,13.1,29.83,NE,53,3.0,3.0,60,0.00,,,0.00,Wunderground v.1.15,2013-03-14 13:20:00,
2013-03-14 09:30:00,24.8,13.6,29.83,ESE,106,4.0,19.0,62,0.00,,,0.00,Wunderground v.1.15,2013-03-14 13:30:00,
2013-03-14 09:40:00,24.8,13.6,29.83,SW,233,2.0,2.0,62,0.00,,,0.00,Wunderground v.1.15,2013-03-14 13:40:00,
2013-03-14 09:50:00,24.8,13.2,29.84,SW,218,3.0,3.0,61,0.00,,,0.00,Wunderground v.1.15,2013-03-14 13:50:00,
2013-03-14 10:00:00,24.5,14.8,29.84,SE,131,3.0,19.0,66,0.00,,,0.00,Wunderground v.1.15,2013-03-14 14:00:00,
2013-03-14 10:10:00,24.4,15.0,29.84,SSW,192,2.0,19.0,67,0.00,,,0.00,Wunderground v.1.15,2013-03-14 14:10:00,
2013-03-14 10:20:00,25.0,14.9,29.83,ESE,121,2.0,19.0,65,0.00,,,0.00,Wunderground v.1.15,2013-03-14 14:20:00,
2013-03-14 10:30:00,25.1,16.0,29.83,SE,135,4.0,19.0,68,0.00,,,0.00,Wunderground v.1.15,2013-03-14 14:30:00,
2013-03-14 10:40:00,25.7,16.6,29.83,East,91,4.0,19.0,68,0.00,,,0.00,Wunderground v.1.15,2013-03-14 14:40:00,
2013-03-14 10:50:00,25.0,17.6,29.83,ENE,64,5.0,5.0,73,0.00,,,0.00,Wunderground v.1.15,2013-03-14 14:50:00,
2013-03-14 11:00:00,24.8,16.7,29.83,South,183,3.0,3.0,71,0.00,,,0.00,Wunderground v.1.15,2013-03-14 15:00:00,
2013-03-14 11:10:00,24.8,17.7,29.83,SSE,158,3.0,19.0,74,0.00,,,0.00,Wunderground v.1.15,2013-03-14 15:10:00,
2013-03-14 11:20:00,25.3,18.5,29.83,SSE,150,4.0,19.0,75,0.00,,,0.00,Wunderground v.1.15,2013-03-14 15:20:00,
2013-03-14 11:29:00,24.7,17.3,29.83,South,171,4.0,4.0,73,0.00,,,0.00,Wunderground v.1.15,2013-03-14 15:29:00,
2013-03-14 11:40:00,25.3,18.2,29.83,SSW,210,2.0,19.0,74,0.00,,,0.00,Wunderground v.1.15,2013-03-14 15:40:00,
2013-03-14 11:50:00,25.7,18.2,29.82,SSW,213,3.0,3.0,73,0.00,,,0.00,Wunderground v.1.15,2013-03-14 15:50:00,
2013-03-14 12:00:00,24.4,19.1,29.82,SSW,208,2.0,19.0,80,0.00,,,0.00,Wunderground v.1.15,2013-03-14 16:00:00,
2013-03-14 12:10:00,23.0,19.4,29.82,South,183,3.0,3.0,86,0.00,,,0.00,Wunderground v.1.15,2013-03-14 16:10:00,
2013-03-14 12:20:00,23.0,20.0,29.83,SE,139,1.0,1.0,88,0.00,,,0.00,Wunderground v.1.15,2013-03-14 16:20:00,
2013-03-14 12:30:00,23.9,19.8,29.82,ESE,121,1.0,19.0,84,0.00,,,0.01,Wunderground v.1.15,2013-03-14 16:30:00,
2013-03-14 12:40:00,25.1,19.5,29.82,SE,140,2.0,19.0,79,0.00,,,0.01,Wunderground v.1.15,2013-03-14 16:40:00,
2013-03-14 12:50:00,26.7,20.8,29.81,SSW,208,1.0,19.0,78,0.00,,,0.01,Wunderground v.1.15,2013-03-14 16:50:00,
2013-03-14 13:00:00,25.7,15.9,29.81,WSW,243,4.0,19.0,66,0.00,,,0.01,Wunderground v.1.15,2013-03-14 17:00:00,
2013-03-14 13:10:00,25.8,15.3,29.81,WSW,252,5.0,5.0,64,0.00,,,0.01,Wunderground v.1.15,2013-03-14 17:10:00,
2013-03-14 13:20:00,26.9,13.7,29.81,WSW,245,5.0,5.0,57,0.00,,,0.01,Wunderground v.1.15,2013-03-14 17:20:00,
2013-03-14 13:30:00,27.8,14.5,29.80,SSW,211,2.0,2.0,57,0.00,,,0.01,Wunderground v.1.15,2013-03-14 17:30:00,
2013-03-14 13:40:00,27.2,14.4,29.80,WSW,240,4.0,4.0,58,0.00,,,0.01,Wunderground v.1.15,2013-03-14 17:40:00,
2013-03-14 13:50:00,26.7,12.7,29.80,SW,229,3.0,3.0,55,0.00,,,0.01,Wunderground v.1.15,2013-03-14 17:50:00,
2013-03-14 14:00:00,26.4,12.4,29.80,NNW,337,3.0,19.0,55,0.00,,,0.01,Wunderground v.1.15,2013-03-14 18:00:00,
2013-03-14 14:10:00,26.4,13.2,29.80,SSW,209,4.0,4.0,57,0.00,,,0.01,Wunderground v.1.15,2013-03-14 18:10:00,
2013-03-14 14:20:00,26.6,13.0,29.80,WNW,289,4.0,4.0,56,0.00,,,0.01,Wunderground v.1.15,2013-03-14 18:20:00,
2013-03-14 14:30:00,27.0,10.4,29.80,SSW,210,4.0,4.0,49,0.00,,,0.01,Wunderground v.1.15,2013-03-14 18:30:00,
2013-03-14 14:40:00,26.6,10.9,29.80,WSW,242,6.0,6.0,51,0.00,,,0.01,Wunderground v.1.15,2013-03-14 18:40:00,
2013-03-14 14:50:00,25.7,9.2,29.80,WSW,255,8.0,19.0,49,0.00,,,0.01,Wunderground v.1.15,2013-03-14 18:50:00,
2013-03-14 15:00:00,25.7,8.7,29.81,WSW,247,9.0,9.0,48,0.00,,,0.01,Wunderground v.1.15,2013-03-14 19:00:00,
2013-03-14 15:10:00,25.6,8.1,29.81,SW,231,6.0,19.0,47,0.00,,,0.01,Wunderground v.1.15,2013-03-14 19:10:00,
2013-03-14 15:20:00,25.8,10.6,29.82,SSW,206,5.0,5.0,52,0.00,,,0.01,Wunderground v.1.15,2013-03-14 19:20:00,
2013-03-14 15:30:00,25.4,7.9,29.82,South,183,4.0,4.0,47,0.00,,,0.01,Wunderground v.1.15,2013-03-14 19:30:00,
2013-03-14 15:40:00,24.5,8.0,29.82,WSW,250,4.0,19.0,49,0.00,,,0.01,Wunderground v.1.15,2013-03-14 19:40:00,
2013-03-14 15:50:00,23.5,7.6,29.83,WNW,284,7.0,7.0,50,0.00,,,0.01,Wunderground v.1.15,2013-03-14 19:50:00,
2013-03-14 16:00:00,23.6,8.5,29.83,WSW,249,4.0,19.0,52,0.00,,,0.01,Wunderground v.1.15,2013-03-14 20:00:00,
2013-03-14 16:10:00,23.2,6.8,29.83,WSW,249,6.0,19.0,49,0.00,,,0.01,Wunderground v.1.15,2013-03-14 20:10:00,
2013-03-14 16:20:00,22.7,6.4,29.84,WSW,241,7.0,7.0,49,0.00,,,0.01,Wunderground v.1.15,2013-03-14 20:20:00,
2013-03-14 16:30:00,22.5,7.9,29.85,SW,220,6.0,19.0,53,0.00,,,0.01,Wunderground v.1.15,2013-03-14 20:30:00,
2013-03-14 16:40:00,22.1,5.8,29.85,West,274,5.0,5.0,49,0.00,,,0.01,Wunderground v.1.15,2013-03-14 20:40:00,
2013-03-14 16:50:00,21.9,5.6,29.85,West,264,7.0,19.0,49,0.00,,,0.01,Wunderground v.1.15,2013-03-14 20:50:00,
2013-03-14 17:00:00,21.0,5.2,29.87,NW,313,11.0,11.0,50,0.00,,,0.01,Wunderground v.1.15,2013-03-14 21:00:00,
2013-03-14 17:10:00,21.0,4.4,29.87,WNW,287,10.0,10.0,48,0.00,,,0.01,Wunderground v.1.15,2013-03-14 21:10:00,
2013-03-14 17:20:00,21.0,6.1,29.87,WSW,243,6.0,6.0,52,0.00,,,0.01,Wunderground v.1.15,2013-03-14 21:20:00,
2013-03-14 17:30:00,20.8,5.5,29.88,WNW,287,9.0,9.0,51,0.00,,,0.01,Wunderground v.1.15,2013-03-14 21:30:00,
2013-03-14 17:40:00,20.6,4.9,29.88,West,267,7.0,7.0,50,0.00,,,0.01,Wunderground v.1.15,2013-03-14 21:40:00,
2013-03-14 17:50:00,20.6,4.9,29.88,West,262,9.0,9.0,50,0.00,,,0.01,Wunderground v.1.15,2013-03-14 21:50:00,
2013-03-14 18:00:00,20.8,5.5,29.88,SSW,212,7.0,19.0,51,0.00,,,0.01,Wunderground v.1.15,2013-03-14 22:00:00,
2013-03-14 18:10:00,21.1,5.8,29.88,SW,229,7.0,7.0,51,0.00,,,0.01,Wunderground v.1.15,2013-03-14 22:10:00,
2013-03-14 18:20:00,21.0,4.8,29.89,WNW,299,8.0,8.0,49,0.00,,,0.01,Wunderground v.1.15,2013-03-14 22:20:00,
2013-03-14 18:30:00,21.0,4.4,29.89,WSW,248,8.0,8.0,48,0.00,,,0.01,Wunderground v.1.15,2013-03-14 22:30:00,
2013-03-14 18:40:00,20.8,4.6,29.89,WNW,284,7.0,8.0,49,0.00,,,0.01,Wunderground v.1.15,2013-03-14 22:40:00,
2013-03-14 18:50:00,20.8,5.1,29.90,WNW,284,6.0,6.0,50,0.00,,,0.01,Wunderground v.1.15,2013-03-14 22:50:00,
2013-03-14 19:00:00,21.0,4.8,29.90,WSW,255,6.0,10.0,49,0.00,,,0.01,Wunderground v.1.15,2013-03-14 23:00:00,
2013-03-14 19:10:00,21.0,4.4,29.90,West,274,6.0,6.0,48,0.00,,,0.01,Wunderground v.1.15,2013-03-14 23:10:00,
2013-03-14 19:20:00,21.0,4.8,29.90,WSW,249,6.0,20.0,49,0.00,,,0.01,Wunderground v.1.15,2013-03-14 23:20:00,
2013-03-14 19:30:00,21.0,4.8,29.90,WSW,252,6.0,6.0,49,0.00,,,0.01,Wunderground v.1.15,2013-03-14 23:30:00,
2013-03-14 19:40:00,21.0,6.5,29.90,WSW,247,4.0,20.0,53,0.00,,,0.01,Wunderground v.1.15,2013-03-14 23:40:00,
2013-03-14 19:50:00,21.1,5.8,29.90,West,276,5.0,20.0,51,0.00,,,0.01,Wunderground v.1.15,2013-03-14 23:50:00,
2013-03-14 20:00:00,21.1,6.2,29.90,WNW,290,4.0,20.0,52,0.00,,,0.01,Wunderground v.1.15,2013-03-15 00:00:00,
2013-03-14 20:10:00,21.1,6.2,29.90,West,268,4.0,20.0,52,0.00,,,0.01,Wunderground v.1.15,2013-03-15 00:10:00,
2013-03-14 20:20:00,21.1,6.6,29.90,West,260,4.0,20.0,53,0.00,,,0.01,Wunderground v.1.15,2013-03-15 00:20:00,
2013-03-14 20:30:00,21.1,6.6,29.90,West,276,3.0,20.0,53,0.00,,,0.01,Wunderground v.1.15,2013-03-15 00:30:00,
2013-03-14 20:40:00,21.1,6.2,29.90,West,272,5.0,5.0,52,0.00,,,0.01,Wunderground v.1.15,2013-03-15 00:40:00,
2013-03-14 20:50:00,21.3,7.6,29.90,WNW,289,4.0,20.0,55,0.00,,,0.01,Wunderground v.1.15,2013-03-15 00:50:00,
2013-03-14 21:00:00,21.3,7.2,29.91,West,280,5.0,20.0,54,0.00,,,0.01,Wunderground v.1.15,2013-03-15 01:00:00,
2013-03-14 21:10:00,21.1,7.4,29.91,West,279,5.0,5.0,55,0.00,,,0.01,Wunderground v.1.15,2013-03-15 01:10:00,
2013-03-14 21:20:00,21.1,7.0,29.91,WSW,252,7.0,20.0,54,0.00,,,0.01,Wunderground v.1.15,2013-03-15 01:20:00,
2013-03-14 21:30:00,21.3,8.0,29.91,SW,218,9.0,20.0,56,0.00,,,0.01,Wunderground v.1.15,2013-03-15 01:30:00,
2013-03-14 21:40:00,21.3,8.0,29.91,West,277,8.0,8.0,56,0.00,,,0.01,Wunderground v.1.15,2013-03-15 01:40:00,
2013-03-14 21:50:00,21.3,8.4,29.92,WSW,254,7.0,7.0,57,0.00,,,0.01,Wunderground v.1.15,2013-03-15 01:50:00,
2013-03-14 22:00:00,21.3,8.4,29.92,West,281,6.0,20.0,57,0.00,,,0.01,Wunderground v.1.15,2013-03-15 02:00:00,
2013-03-14 22:10:00,21.3,8.8,29.92,West,281,5.0,20.0,58,0.00,,,0.01,Wunderground v.1.15,2013-03-15 02:10:00,
2013-03-14 22:20:00,21.1,8.2,29.92,West,281,7.0,20.0,57,0.00,,,0.01,Wunderground v.1.15,2013-03-15 02:20:00,
2013-03-14 22:30:00,21.1,8.2,29.92,NW,308,7.0,20.0,57,0.00,,,0.01,Wunderground v.1.15,2013-03-15 02:30:00,
2013-03-14 22:40:00,21.1,8.2,29.92,West,270,8.0,8.0,57,0.00,,,0.01,Wunderground v.1.15,2013-03-15 02:40:00,
2013-03-14 22:50:00,21.0,8.1,29.92,West,262,6.0,6.0,57,0.00,,,0.01,Wunderground v.1.15,2013-03-15 02:50:00,
2013-03-14 23:00:00,21.0,8.1,29.92,West,270,6.0,20.0,57,0.00,,,0.01,Wunderground v.1.15,2013-03-15 03:00:00,
2013-03-14 23:10:00,21.0,6.9,29.92,West,267,8.0,8.0,54,0.00,,,0.01,Wunderground v.1.15,2013-03-15 03:10:00,
2013-03-14 23:20:00,21.1,7.0,29.92,West,271,10.0,10.0,54,0.00,,,0.01,Wunderground v.1.15,2013-03-15 03:20:00,
2013-03-14 23:30:00,21.0,6.1,29.92,WSW,253,9.0,20.0,52,0.00,,,0.01,Wunderground v.1.15,2013-03-15 03:30:00,
2013-03-14 23:40:00,20.8,5.5,29.92,WSW,252,7.0,7.0,51,0.00,,,0.01,Wunderground v.1.15,2013-03-15 03:40:00,
2013-03-14 23:50:00,20.8,5.5,29.92,WNW,295,9.0,20.0,51,0.00,,,0.01,Wunderground v.1.15,2013-03-15 03:50:00,